createdAt,value
2018-07-10T00:02:23.895Z,51.50
2018-07-10T00:05:09.595Z,51.90
2018-07-10T00:12:28.565Z,51.80
2018-07-10T00:14:58.798Z,51.40
2018-07-10T00:19:55.723Z,52.10
2018-07-10T00:22:25.101Z,51.90
2018-07-10T00:24:53.715Z,51.50
2018-07-10T01:12:18.751Z,51.40
2018-07-10T01:14:56.605Z,55.80
2018-07-10T01:19:58.171Z,53.60
2018-07-10T01:22:29.556Z,53.00
2018-07-10T01:25:01.305Z,52.40
2018-07-10T01:30:01.673Z,51.60
2018-07-10T01:32:31.120Z,51.40
2018-07-10T01:37:45.476Z,50.80
2018-07-10T01:40:15.178Z,51.00
2018-07-10T01:42:43.968Z,51.00
2018-07-10T01:47:58.225Z,50.10
2018-07-10T01:50:46.139Z,50.20
2018-07-10T01:56:05.087Z,51.20
2018-07-10T01:58:33.788Z,51.50
2018-07-10T02:01:02.371Z,51.60
2018-07-10T02:09:04.004Z,51.30
2018-07-10T02:12:47.478Z,50.80
2018-07-10T02:15:31.423Z,50.60
2018-07-10T02:21:18.647Z,51.10
2018-07-10T02:23:47.455Z,51.00
2018-07-10T02:29:08.913Z,50.90
2018-07-10T02:38:42.356Z,51.50
2018-07-10T02:41:39.166Z,52.20
2018-07-10T02:44:25.427Z,52.30
2018-07-10T06:26:10.905Z,28.40
2018-07-10T06:28:46.678Z,27.50
2018-07-10T06:31:22.748Z,28.60
2018-07-10T06:34:07.041Z,30.60
2018-07-10T06:45:02.668Z,35.00
2018-07-10T06:52:49.836Z,36.40
2018-07-10T06:55:22.893Z,34.00
2018-07-10T06:57:55.764Z,37.10
2018-07-10T07:00:30.968Z,38.30
2018-07-10T07:03:04.304Z,39.60
2018-07-10T07:05:35.596Z,40.50
2018-07-10T07:08:04.350Z,41.00
2018-07-10T07:10:33.723Z,41.70
2018-07-10T07:13:02.741Z,41.60
2018-07-10T07:15:32.310Z,41.80
2018-07-10T07:18:07.740Z,42.20
2018-07-10T07:20:36.530Z,42.60
2018-07-10T07:23:12.866Z,42.70
2018-07-10T07:25:41.506Z,42.70
2018-07-10T07:28:10.012Z,43.40
2018-07-10T07:30:39.913Z,43.70
2018-07-10T07:33:09.685Z,43.20
2018-07-10T07:35:38.299Z,43.30
2018-07-10T07:38:08.119Z,43.00
2018-07-10T07:40:36.914Z,42.80
2018-07-10T07:44:41.846Z,41.20
2018-07-10T07:50:22.498Z,40.30
2018-07-10T07:57:55.074Z,40.60
2018-07-10T08:03:48.046Z,40.90
2018-07-10T08:12:14.041Z,40.60
2018-07-10T08:14:43.024Z,41.00
2018-07-10T08:17:12.724Z,40.10
2018-07-10T08:19:42.657Z,39.70
2018-07-10T08:22:20.860Z,39.50
2018-07-10T08:34:33.731Z,38.70
2018-07-10T08:37:04.196Z,38.50
2018-07-10T08:42:06.282Z,38.60
2018-07-10T08:44:35.518Z,38.30
2018-07-10T08:47:10.040Z,38.40
2018-07-10T08:49:44.542Z,38.40
2018-07-10T08:52:33.742Z,38.80
2018-07-10T08:55:02.545Z,39.20
2018-07-10T08:57:31.225Z,39.60
2018-07-10T09:00:00.185Z,39.70
2018-07-10T09:02:30.948Z,40.10
2018-07-10T09:05:07.875Z,40.10
2018-07-10T09:07:36.771Z,40.10
2018-07-10T09:14:00.484Z,40.90
2018-07-10T09:20:02.087Z,40.40
2018-07-10T09:22:31.456Z,40.00
2018-07-10T09:25:00.301Z,39.60
2018-07-10T09:27:28.931Z,39.40
2018-07-10T09:32:31.344Z,39.70
2018-07-10T09:34:59.969Z,39.90
2018-07-10T09:37:35.467Z,40.20
2018-07-10T09:40:09.557Z,40.20
2018-07-10T09:45:10.157Z,40.40
2018-07-10T09:47:39.121Z,40.60
2018-07-10T09:50:08.111Z,41.00
2018-07-10T09:52:36.757Z,41.00
2018-07-10T09:55:05.389Z,41.00
2018-07-10T09:57:34.107Z,40.90
2018-07-10T10:05:03.922Z,40.20
2018-07-10T10:07:32.513Z,39.80
2018-07-10T10:10:02.352Z,39.90
2018-07-10T10:12:31.598Z,40.10
2018-07-10T10:15:00.181Z,40.40
2018-07-10T10:17:29.541Z,41.40
2018-07-10T10:19:59.050Z,40.70
2018-07-10T10:22:28.719Z,40.50
2018-07-10T10:24:58.319Z,40.50
2018-07-10T10:27:28.883Z,40.80
2018-07-10T10:29:57.808Z,40.80
2018-07-10T10:34:54.644Z,40.10
2018-07-10T10:37:23.349Z,40.10
2018-07-10T10:42:21.002Z,39.50
2018-07-10T10:44:52.212Z,39.40
2018-07-10T10:47:21.994Z,39.30
2018-07-10T10:50:22.014Z,39.40
2018-07-10T10:52:52.938Z,39.70
2018-07-10T10:55:21.834Z,40.00
2018-07-10T11:02:47.234Z,40.60
2018-07-10T11:05:16.152Z,40.50
2018-07-10T11:10:21.402Z,39.50
2018-07-10T11:12:50.777Z,39.40
2018-07-10T11:15:19.990Z,39.30
2018-07-10T11:18:01.568Z,38.80
2018-07-10T11:21:08.710Z,38.90
2018-07-10T11:23:47.720Z,39.10
2018-07-10T11:26:37.117Z,39.50
2018-07-10T11:29:06.676Z,40.00
2018-07-10T11:31:36.493Z,40.40
2018-07-10T11:34:23.797Z,40.30
2018-07-10T11:36:52.349Z,40.90
2018-07-10T11:39:22.373Z,41.20
2018-07-10T11:41:52.365Z,41.10
2018-07-10T11:44:20.938Z,41.10
2018-07-10T11:46:50.043Z,41.60
2018-07-10T11:49:18.592Z,41.60
2018-07-10T11:54:15.523Z,42.30
2018-07-10T11:56:44.150Z,41.10
2018-07-10T11:59:15.530Z,41.90
2018-07-10T12:01:44.259Z,41.40
2018-07-10T12:04:12.791Z,41.60
2018-07-10T12:06:48.872Z,41.90
2018-07-10T12:09:17.942Z,42.10
2018-07-10T12:11:46.583Z,42.40
2018-07-10T12:14:15.251Z,43.00
2018-07-10T12:16:43.915Z,43.20
2018-07-10T12:19:12.440Z,43.20
2018-07-10T12:24:09.327Z,43.50
2018-07-10T12:26:38.947Z,43.50
2018-07-10T12:29:07.536Z,43.60
2018-07-10T12:31:36.193Z,43.60
2018-07-10T12:34:05.080Z,43.40
2018-07-10T12:36:34.104Z,43.10
2018-07-10T12:39:02.829Z,43.00
2018-07-10T12:41:33.146Z,42.70
2018-07-10T12:44:01.787Z,42.60
2018-07-10T12:46:30.391Z,42.70
2018-07-10T12:48:59.028Z,42.70
2018-07-10T12:51:27.743Z,42.80
2018-07-10T12:53:56.332Z,43.10
2018-07-10T12:56:25.145Z,43.50
2018-07-10T12:58:53.867Z,44.00
2018-07-10T13:01:23.197Z,44.50
2018-07-10T13:03:53.167Z,44.90
2018-07-10T13:06:22.934Z,45.90
2018-07-10T13:08:51.592Z,48.00
2018-07-10T13:11:20.359Z,48.40
2018-07-10T13:13:49.228Z,49.10
2018-07-10T13:16:19.064Z,49.90
2018-07-10T13:21:16.046Z,51.60
2018-07-10T13:23:45.584Z,52.40
2018-07-10T13:26:14.296Z,51.90
2018-07-10T13:28:42.960Z,51.50
2018-07-10T13:31:11.664Z,51.80
2018-07-10T13:33:40.425Z,51.40
2018-07-10T13:36:09.098Z,50.30
2018-07-10T13:38:37.831Z,50.40
2018-07-10T13:43:34.730Z,48.60
2018-07-10T13:46:03.426Z,48.30
2018-07-10T13:48:32.059Z,47.70
2018-07-10T13:51:00.682Z,47.20
2018-07-10T13:53:29.516Z,46.90
2018-07-10T13:55:58.387Z,46.50
2018-07-10T13:58:30.327Z,45.70
2018-07-10T14:01:07.306Z,45.90
2018-07-10T14:03:36.780Z,46.10
2018-07-10T14:06:07.137Z,46.10
2018-07-10T14:08:35.953Z,45.90
2018-07-10T14:11:04.556Z,46.10
2018-07-10T14:13:33.315Z,45.80
2018-07-10T14:16:03.348Z,45.10
2018-07-10T14:18:32.076Z,44.70
2018-07-10T14:21:06.483Z,44.70
2018-07-10T14:23:35.273Z,44.80
2018-07-10T14:26:04.231Z,45.10
2018-07-10T14:28:32.881Z,45.10
2018-07-10T14:31:01.535Z,45.40
2018-07-10T14:35:58.733Z,45.30
2018-07-10T14:38:29.075Z,45.40
2018-07-10T14:41:00.688Z,45.30
2018-07-10T14:43:33.645Z,45.40
2018-07-10T14:46:08.804Z,45.50
2018-07-10T14:49:02.438Z,46.30
2018-07-10T14:51:42.108Z,45.40
2018-07-10T14:56:42.118Z,45.90
2018-07-10T14:59:11.257Z,45.50
2018-07-10T15:01:40.906Z,45.80
2018-07-10T15:04:09.994Z,45.90
2018-07-10T15:06:38.747Z,46.00
2018-07-10T15:09:09.705Z,46.10
2018-07-10T15:11:38.596Z,45.90
2018-07-10T15:14:11.356Z,46.10
2018-07-10T15:16:46.015Z,46.00
2018-07-10T15:19:16.017Z,45.80
2018-07-10T15:21:44.955Z,46.10
2018-07-10T15:24:14.756Z,46.40
2018-07-10T15:26:44.530Z,46.80
2018-07-10T15:29:17.380Z,47.00
2018-07-10T15:31:47.137Z,47.20
2018-07-10T15:34:15.738Z,47.40
2018-07-10T15:36:46.315Z,47.90
2018-07-10T15:39:15.455Z,48.10
2018-07-10T15:41:44.799Z,48.60
2018-07-10T15:44:13.997Z,49.50
2018-07-10T15:46:43.264Z,48.50
2018-07-10T15:49:11.939Z,48.60
2018-07-10T15:51:40.652Z,48.70
2018-07-10T15:56:39.836Z,49.90
2018-07-10T15:59:09.544Z,51.30
2018-07-10T16:01:39.328Z,53.80
2018-07-10T16:04:09.172Z,55.00
2018-07-10T16:06:38.955Z,54.60
2018-07-10T16:09:23.299Z,55.60
2018-07-10T16:12:00.719Z,55.10
2018-07-10T16:14:29.862Z,54.30
2018-07-10T16:16:58.723Z,55.30
2018-07-10T16:19:35.857Z,56.10
2018-07-10T16:22:08.792Z,55.90
2018-07-10T16:27:18.501Z,55.60
2018-07-10T16:29:51.081Z,55.90
2018-07-10T16:32:19.687Z,55.20
2018-07-10T16:34:48.229Z,55.20
2018-07-10T16:37:16.895Z,56.10
2018-07-10T16:39:45.531Z,56.30
2018-07-10T16:43:18.079Z,56.70
2018-07-10T16:46:37.991Z,57.30
2018-07-10T16:49:27.181Z,57.40
2018-07-10T16:52:29.040Z,57.60
2018-07-10T16:55:09.440Z,57.70
2018-07-10T16:57:59.262Z,57.50
2018-07-10T17:00:49.560Z,57.20
2018-07-10T17:03:18.306Z,56.90
2018-07-10T17:05:46.985Z,57.00
2018-07-10T17:08:15.684Z,57.30
2018-07-10T17:10:45.032Z,57.70
2018-07-10T17:13:13.884Z,58.20
2018-07-10T17:15:42.726Z,58.60
2018-07-10T17:18:13.374Z,59.00
2018-07-10T17:20:43.173Z,59.10
2018-07-10T17:23:12.374Z,59.50
2018-07-10T17:25:42.067Z,60.70
2018-07-10T17:28:17.527Z,61.30
2018-07-10T17:30:50.067Z,62.50
2018-07-10T17:33:18.823Z,62.50
2018-07-10T17:35:47.423Z,62.70
2018-07-10T17:38:16.037Z,61.90
2018-07-10T17:40:44.731Z,61.60
2018-07-10T17:43:13.409Z,61.60
2018-07-10T17:45:42.055Z,61.80
2018-07-10T17:48:11.456Z,61.70
2018-07-10T17:51:05.921Z,60.80
2018-07-10T17:53:34.627Z,59.70
2018-07-10T17:56:03.240Z,59.70
2018-07-10T17:58:33.735Z,58.80
2018-07-10T18:01:02.510Z,58.50
2018-07-10T18:03:31.298Z,58.60
2018-07-10T18:06:01.098Z,58.90
2018-07-10T18:08:34.475Z,58.90
2018-07-10T18:11:03.300Z,58.60
2018-07-10T18:13:32.988Z,58.40
2018-07-10T18:18:35.034Z,59.40
2018-07-10T18:21:05.298Z,59.20
2018-07-10T18:23:50.254Z,59.30
2018-07-10T18:28:53.727Z,59.30
2018-07-10T18:31:35.641Z,59.60
2018-07-10T18:34:08.252Z,59.30
2018-07-10T18:36:39.347Z,60.90
2018-07-10T18:39:09.452Z,60.40
2018-07-10T18:41:57.136Z,62.10
2018-07-10T18:47:01.749Z,64.10
2018-07-10T18:49:30.394Z,63.30
2018-07-10T18:52:00.893Z,63.60
2018-07-10T18:56:42.723Z,64.30
2018-07-10T18:59:15.654Z,63.70
2018-07-10T19:05:40.710Z,62.80
2018-07-10T19:08:20.098Z,61.70
2018-07-10T19:10:57.502Z,62.30
2018-07-10T19:13:28.407Z,61.80
2018-07-10T19:18:53.563Z,61.70
2018-07-10T19:21:46.313Z,61.30
2018-07-10T19:24:17.076Z,61.50
2018-07-10T19:35:38.881Z,57.70
2018-07-10T19:38:13.390Z,58.30
2018-07-10T19:40:46.609Z,58.70
2018-07-10T19:43:20.685Z,59.40
2018-07-10T19:45:50.502Z,59.10
2018-07-10T19:48:20.051Z,59.50
2018-07-10T19:50:50.632Z,58.40
2018-07-10T19:53:21.678Z,57.20
2018-07-10T19:55:52.808Z,56.10
2018-07-10T19:58:34.802Z,56.50
2018-07-10T20:01:17.269Z,55.60
2018-07-10T20:04:05.654Z,56.20
2018-07-10T20:09:10.828Z,56.00
2018-07-10T20:12:07.667Z,55.70
2018-07-10T20:15:46.174Z,55.80
2018-07-10T20:19:25.649Z,57.80
2018-07-10T20:22:06.736Z,62.10
2018-07-10T20:24:36.616Z,63.20
2018-07-10T20:27:48.280Z,64.40
2018-07-10T20:30:32.286Z,64.70
2018-07-10T20:33:12.025Z,65.50
2018-07-10T20:35:48.948Z,64.90
2018-07-10T20:38:18.294Z,63.80
2018-07-10T20:40:48.702Z,59.40
2018-07-10T20:43:21.144Z,56.70
2018-07-10T20:45:55.554Z,56.80
2018-07-10T20:48:38.480Z,56.80
2018-07-10T20:51:08.610Z,57.00
2018-07-10T20:59:41.475Z,57.80
2018-07-10T21:02:31.054Z,58.50
2018-07-10T21:05:10.764Z,58.40
2018-07-10T21:09:55.642Z,57.90
2018-07-10T21:12:34.409Z,58.60
2018-07-10T21:24:14.180Z,59.60
2018-07-10T21:29:53.033Z,60.80
2018-07-10T21:33:24.703Z,60.20
2018-07-10T21:36:08.477Z,58.60
2018-07-10T21:38:43.351Z,58.00
2018-07-10T21:42:43.123Z,58.60
2018-07-10T21:49:41.639Z,57.90
2018-07-10T21:52:11.012Z,58.00
2018-07-10T21:54:40.040Z,57.90
2018-07-10T21:57:14.212Z,57.80
2018-07-10T21:59:49.561Z,57.30
2018-07-10T22:02:18.201Z,56.60
2018-07-10T22:04:47.469Z,56.40
2018-07-10T22:07:17.711Z,55.90
2018-07-10T22:12:17.445Z,55.80
2018-07-10T22:14:46.179Z,55.20
2018-07-10T22:17:17.730Z,55.20
2018-07-10T22:19:48.055Z,54.80
2018-07-10T22:22:22.033Z,54.70
2018-07-10T22:24:51.921Z,54.40
2018-07-10T22:29:55.554Z,54.40
2018-07-10T22:34:59.105Z,54.30
2018-07-10T22:37:27.790Z,54.30
2018-07-10T22:39:57.629Z,54.10
2018-07-10T22:42:26.371Z,54.20
2018-07-10T22:44:56.815Z,53.80
2018-07-10T22:47:42.260Z,53.20
2018-07-10T22:50:17.130Z,53.10
2018-07-10T22:52:52.838Z,53.00
2018-07-10T22:55:26.461Z,53.10
2018-07-10T22:57:59.628Z,52.90
2018-07-10T23:00:30.755Z,52.70
2018-07-10T23:03:00.332Z,52.70
2018-07-10T23:05:28.937Z,53.00
2018-07-10T23:07:57.749Z,53.00
2018-07-10T23:10:26.394Z,53.10
2018-07-10T23:12:55.067Z,53.10
2018-07-10T23:15:23.650Z,53.20
2018-07-10T23:17:52.241Z,53.00
2018-07-10T23:20:22.459Z,53.30
2018-07-10T23:22:56.100Z,53.00
2018-07-10T23:25:27.099Z,53.10
2018-07-10T23:28:03.892Z,53.30
2018-07-10T23:33:09.827Z,53.40
2018-07-10T23:35:39.281Z,53.30
2018-07-10T23:38:17.948Z,53.40
2018-07-10T23:40:46.687Z,53.40
2018-07-10T23:45:44.302Z,53.40
2018-07-10T23:48:12.922Z,53.20
2018-07-10T23:50:41.594Z,53.40
2018-07-10T23:53:47.019Z,53.40
2018-07-10T23:56:16.406Z,53.80
2018-07-10T23:58:46.506Z,53.90
